createdAt,value
2022-12-08T00:00:50.736Z,48.3
2022-12-08T00:05:56.054Z,52.21999999999999
2022-12-08T00:11:01.222Z,51.9
2022-12-08T00:16:06.508Z,52.36
2022-12-08T00:21:11.719Z,48.86
2022-12-08T00:26:16.943Z,41.8
2022-12-08T00:31:22.260Z,40.9
2022-12-08T00:36:27.395Z,39.66
2022-12-08T00:41:32.653Z,42.36
2022-12-08T00:46:37.883Z,47.559999999999995
2022-12-08T00:51:43.150Z,81.1
2022-12-08T00:56:53.364Z,68.74
2022-12-08T01:01:58.592Z,65.94
2022-12-08T01:07:03.812Z,67.55999999999999
2022-12-08T01:12:09.064Z,60.52
2022-12-08T01:17:14.416Z,63.68000000000001
2022-12-08T01:22:19.557Z,62.32000000000001
2022-12-08T01:27:24.765Z,59.739999999999995
2022-12-08T01:32:30.040Z,61.74000000000001
2022-12-08T01:37:35.404Z,55.64000000000001
2022-12-08T01:42:49.511Z,60.5
2022-12-08T01:47:57.760Z,60.54
2022-12-08T01:53:09.897Z,60.65999999999999
2022-12-08T01:58:19.143Z,65.78
2022-12-08T02:03:29.361Z,63.54
2022-12-08T02:08:36.595Z,60.46
2022-12-08T02:13:45.831Z,61.98
2022-12-08T02:19:29.306Z,59.660000000000004
2022-12-08T02:24:47.186Z,57.92
2022-12-08T02:30:07.629Z,61.04
2022-12-08T02:35:19.572Z,60.120000000000005
2022-12-08T02:40:31.804Z,52.959999999999994
2022-12-08T02:45:44.996Z,54.04
2022-12-08T02:50:51.242Z,52.1
2022-12-08T02:56:03.541Z,47.8
2022-12-08T03:01:19.755Z,40.56
2022-12-08T03:06:32.902Z,35.82000000000001
2022-12-08T03:11:48.165Z,33.56
2022-12-08T03:16:57.340Z,31.46
2022-12-08T03:22:05.575Z,31.72
2022-12-08T03:27:15.816Z,26.72
2022-12-08T03:32:27.050Z,26.419999999999998
2022-12-08T03:37:35.281Z,25.139999999999997
2022-12-08T03:42:40.472Z,23.1
2022-12-08T03:47:45.731Z,22.560000000000002
2022-12-08T03:52:50.971Z,23.58
2022-12-08T03:57:56.231Z,19.939999999999998
2022-12-08T04:03:01.534Z,19.86
2022-12-08T04:08:06.739Z,21.660000000000004
2022-12-08T04:13:11.889Z,20.639999999999997
2022-12-08T04:18:17.167Z,21.88
2022-12-08T04:23:22.396Z,22.7
2022-12-08T04:28:27.625Z,23.279999999999998
2022-12-08T04:33:32.852Z,23.82
2022-12-08T04:38:38.091Z,23.839999999999996
2022-12-08T04:43:43.338Z,27.46
2022-12-08T04:48:48.586Z,28
2022-12-08T04:53:53.820Z,28.8
2022-12-08T04:58:59.058Z,26.559999999999995
2022-12-08T05:04:04.334Z,26.360000000000003
2022-12-08T05:09:09.521Z,26.559999999999995
2022-12-08T05:14:15.732Z,28.76
2022-12-08T05:19:20.972Z,27.160000000000004
2022-12-08T05:24:26.215Z,34.1
2022-12-08T05:29:31.482Z,34.760000000000005
2022-12-08T05:34:36.699Z,34.2
2022-12-08T05:39:47.936Z,49.339999999999996
2022-12-08T05:44:53.137Z,45.24
2022-12-08T05:49:58.414Z,39.92
2022-12-08T05:55:03.652Z,33.32000000000001
2022-12-08T06:00:09.884Z,30.640000000000004
2022-12-08T06:05:15.114Z,38.540000000000006
2022-12-08T06:10:20.308Z,42.98
2022-12-08T06:15:25.613Z,74.1
2022-12-08T06:20:30.833Z,36.019999999999996
2022-12-08T06:25:36.081Z,37.4
2022-12-08T06:30:41.311Z,49.58
2022-12-08T06:35:46.531Z,48.5
2022-12-08T06:40:53.785Z,41.3
2022-12-08T06:45:59.010Z,41.54
2022-12-08T06:51:07.223Z,43.98
2022-12-08T06:56:16.480Z,41.98
2022-12-08T07:01:21.804Z,41.480000000000004
2022-12-08T07:06:27.902Z,37.54
2022-12-08T07:11:39.183Z,38.04
2022-12-08T07:16:44.570Z,37
2022-12-08T07:21:49.608Z,48.6
2022-12-08T07:26:54.862Z,47.12
2022-12-08T07:32:00.078Z,116.86000000000001
2022-12-08T07:37:05.330Z,62.620000000000005
2022-12-08T07:42:10.586Z,49.839999999999996
2022-12-08T07:47:15.813Z,41.64
2022-12-08T07:52:22.027Z,44.239999999999995
2022-12-08T07:57:30.280Z,48.239999999999995
2022-12-08T08:02:35.621Z,43.72
2022-12-08T08:07:41.803Z,53.82000000000001
2022-12-08T08:12:46.977Z,50.74
2022-12-08T08:17:53.256Z,56.540000000000006
2022-12-08T08:22:58.433Z,40.28
2022-12-08T08:28:03.710Z,40.62
2022-12-08T08:33:08.963Z,37.099999999999994
2022-12-08T08:38:14.186Z,47.18
2022-12-08T08:43:19.416Z,40.220000000000006
2022-12-08T08:48:24.636Z,38.6
2022-12-08T08:53:29.886Z,32.279999999999994
2022-12-08T08:58:35.118Z,28.3
2022-12-08T09:03:40.319Z,194.1
2022-12-08T09:08:45.596Z,135.1
2022-12-08T09:13:50.844Z,50.239999999999995
2022-12-08T09:18:56.040Z,36.62
2022-12-08T09:24:01.318Z,24.139999999999997
2022-12-08T09:29:06.595Z,25.199999999999996
2022-12-08T09:34:11.785Z,21.639999999999997
2022-12-08T09:39:17.046Z,18.46
2022-12-08T09:44:37.217Z,22.82
2022-12-08T09:49:49.477Z,18.18
2022-12-08T09:54:59.626Z,23.2
2022-12-08T10:00:07.259Z,28.320000000000004
2022-12-08T10:05:15.236Z,28.54
2022-12-08T10:10:30.317Z,41.9
2022-12-08T10:15:42.633Z,22.32
2022-12-08T10:20:49.769Z,24.660000000000004
2022-12-08T10:26:06.980Z,18.56
2022-12-08T10:31:16.331Z,20.66
2022-12-08T10:36:22.448Z,104.85999999999999
2022-12-08T10:41:31.691Z,128.82
2022-12-08T10:46:41.029Z,232.64000000000001
2022-12-08T10:51:54.130Z,237.19999999999996
2022-12-08T10:57:00.400Z,149.45999999999998
2022-12-08T11:07:22.816Z,51.120000000000005
2022-12-08T11:12:30.049Z,32.02
2022-12-08T11:17:40.273Z,28.939999999999998
2022-12-08T11:22:54.480Z,31.2
2022-12-08T11:28:00.729Z,24.44
2022-12-08T11:33:12.908Z,31.8
2022-12-08T11:38:21.887Z,26.380000000000003
2022-12-08T11:43:38.373Z,16.14
2022-12-08T11:48:50.583Z,29.339999999999996
2022-12-08T11:54:05.851Z,29.72
2022-12-08T11:59:20.000Z,20.68
2022-12-08T12:04:32.246Z,22.24
2022-12-08T12:09:48.431Z,20.96
2022-12-08T12:15:16.611Z,27.360000000000003
2022-12-08T12:20:25.880Z,24.18
2022-12-08T12:25:32.074Z,26
2022-12-08T12:30:52.361Z,31.3
2022-12-08T12:36:16.437Z,23.800000000000004
2022-12-08T12:41:25.491Z,19
2022-12-08T12:47:48.568Z,20.14
2022-12-08T12:54:20.748Z,22.819999999999997
2022-12-08T12:59:35.001Z,25.26
2022-12-08T13:04:41.224Z,20.880000000000003
2022-12-08T13:09:56.711Z,24.439999999999998
2022-12-08T13:15:05.657Z,15.9
2022-12-08T13:20:18.833Z,16.98
2022-12-08T13:26:28.994Z,24.54
2022-12-08T13:31:38.173Z,16.119999999999997
2022-12-08T13:37:00.347Z,14.780000000000001
2022-12-08T13:42:14.547Z,22.459999999999997
2022-12-08T13:47:34.213Z,19.639999999999997
2022-12-08T13:58:29.151Z,41.5
2022-12-08T14:04:04.314Z,21.919999999999998
2022-12-08T14:09:34.486Z,20.880000000000003
2022-12-08T14:15:01.186Z,25.46
2022-12-08T14:20:19.889Z,29.5
2022-12-08T14:25:35.362Z,32.480000000000004
2022-12-08T14:30:49.357Z,40.3
2022-12-08T14:35:56.528Z,36.379999999999995
2022-12-08T14:41:04.747Z,30.220000000000006
2022-12-08T14:46:22.008Z,25.56
2022-12-08T14:51:32.211Z,40.660000000000004
2022-12-08T14:56:41.410Z,48.48
2022-12-08T15:01:48.816Z,36.720000000000006
2022-12-08T15:06:55.845Z,57.11999999999999
2022-12-08T15:12:06.105Z,40.7
2022-12-08T15:17:41.239Z,36.17999999999999
2022-12-08T15:22:50.497Z,42.019999999999996
2022-12-08T15:27:56.699Z,45.32000000000001
2022-12-08T15:33:01.960Z,37.339999999999996
2022-12-08T15:38:08.280Z,23.919999999999998
2022-12-08T15:43:13.427Z,13.540000000000001
2022-12-08T15:48:19.666Z,15.02
2022-12-08T15:53:25.919Z,53.3
2022-12-08T15:58:53.059Z,57.61999999999999
2022-12-08T16:09:38.818Z,41.400000000000006
2022-12-08T16:20:20.113Z,33.72
2022-12-08T16:25:46.047Z,29.1
2022-12-08T16:31:16.660Z,31.939999999999998
2022-12-08T16:36:24.458Z,35.040000000000006
2022-12-08T16:41:29.657Z,31.22
2022-12-08T16:46:34.977Z,27.939999999999998
2022-12-08T16:51:42.185Z,29.360000000000003
2022-12-08T16:56:47.411Z,27.380000000000003
2022-12-08T17:01:52.641Z,76.68
2022-12-08T17:06:57.854Z,141.64000000000001
2022-12-08T17:12:04.335Z,60.96
2022-12-08T17:17:09.323Z,65.14000000000001
2022-12-08T17:22:14.606Z,48.26
2022-12-08T17:27:19.809Z,75.52000000000001
2022-12-08T17:32:25.128Z,59.279999999999994
2022-12-08T17:37:30.261Z,73.92
2022-12-08T17:42:35.526Z,59.81999999999999
2022-12-08T17:47:40.746Z,55.64
2022-12-08T17:52:49.960Z,65.08
2022-12-08T17:57:59.480Z,57.220000000000006
2022-12-08T18:03:04.493Z,44.44
2022-12-08T18:08:09.777Z,47.8
2022-12-08T18:13:14.914Z,59.839999999999996
2022-12-08T18:18:20.162Z,42.58
2022-12-08T18:23:25.431Z,46.959999999999994
2022-12-08T18:28:30.656Z,39.32
2022-12-08T18:33:35.900Z,40.160000000000004
2022-12-08T18:38:41.117Z,38.2
2022-12-08T18:43:46.347Z,45.46
2022-12-08T18:48:52.576Z,45.42
2022-12-08T18:53:58.803Z,46.3
2022-12-08T18:59:11.013Z,39.58
2022-12-08T19:04:29.806Z,42.540000000000006
2022-12-08T19:09:35.466Z,54.02
2022-12-08T19:14:40.753Z,60.660000000000004
2022-12-08T19:19:45.973Z,62.08
2022-12-08T19:24:51.202Z,54.89999999999999
2022-12-08T19:29:56.482Z,56.3
2022-12-08T19:35:01.670Z,80.64
2022-12-08T19:40:08.227Z,52.660000000000004
2022-12-08T19:45:15.170Z,39.58
2022-12-08T19:50:21.367Z,55.46
2022-12-08T19:55:26.596Z,49.52
2022-12-08T20:00:32.821Z,38.620000000000005
2022-12-08T20:05:40.091Z,38.06
2022-12-08T20:10:48.298Z,36.67999999999999
2022-12-08T20:15:53.616Z,37.260000000000005
2022-12-08T20:20:16.209Z,23.2
2022-12-08T20:25:21.161Z,28.9
2022-12-08T20:30:26.364Z,33.34
2022-12-08T20:35:31.576Z,38.760000000000005
2022-12-08T20:40:41.885Z,33.760000000000005
2022-12-08T20:45:47.225Z,30.139999999999997
2022-12-08T20:50:52.681Z,32.06
2022-12-08T20:55:59.763Z,21.96
2022-12-08T21:01:08.954Z,25.1
2022-12-08T21:06:21.115Z,25.2
2022-12-08T21:11:28.393Z,48.06
2022-12-08T21:16:38.806Z,31.82
2022-12-08T21:21:45.832Z,27.060000000000002
2022-12-08T21:26:51.876Z,25.880000000000003
2022-12-08T21:31:58.220Z,21.640000000000004
2022-12-08T21:37:03.429Z,28.04
2022-12-08T21:42:08.614Z,26.580000000000002
2022-12-08T21:47:13.979Z,24.48
2022-12-08T21:52:19.072Z,29
2022-12-08T21:57:24.316Z,36.6
2022-12-08T22:02:29.913Z,36.239999999999995
2022-12-08T22:07:37.872Z,29.279999999999994
2022-12-08T22:12:43.237Z,49.94
2022-12-08T22:17:48.571Z,31.339999999999996
2022-12-08T22:22:59.451Z,31.9
2022-12-08T22:28:05.916Z,31.46
2022-12-08T22:33:10.936Z,31.939999999999998
2022-12-08T22:38:16.155Z,33.7
2022-12-08T22:43:21.460Z,37.260000000000005
2022-12-08T22:48:27.632Z,29.839999999999996
2022-12-08T22:53:33.066Z,31.82
2022-12-08T22:58:38.235Z,29.24
2022-12-08T23:03:43.679Z,27.78
2022-12-08T23:08:48.810Z,33.480000000000004
2022-12-08T23:13:55.119Z,42.72
2022-12-08T23:19:00.157Z,34.1
2022-12-08T23:24:05.319Z,41.11999999999999
2022-12-08T23:29:10.803Z,37.64
2022-12-08T23:34:15.895Z,45.78
2022-12-08T23:39:21.097Z,45.92
2022-12-08T23:44:27.226Z,33.760000000000005
2022-12-08T23:49:32.474Z,44.559999999999995
2022-12-08T23:54:37.785Z,93.78
2022-12-08T23:59:43.111Z,35.06
